Holy Cross — WDE7144 — position and weather

sailwx.info

Track history (hours):
 
Tides and Currents Weather Stations Pressure Air Temp Water Temp Dewpoint Dewpoint Depression Visibility Wind Speed Wind Dir Waves Ship Positions

Holy Cross

Owner: Marquette Transportation Company Gulf-Inland, LLC, Jefferson, LA. More information available from US FCC via Universal Licensing System and Coast Guard Vessel Documentation Center.

Last reported at 2018-Feb-25 13:52 UTC. Time now 2018-Feb-25 14:03 UTC.
Position N 29°34' W 094°25'.

Length 21 m; draft 3 m.

Type: . MMSI: 367389540.

Date/timePositionNaut miles runAvg speedWind from/ knotsBaromVisibWave heightAir tempDewpointWater temp
2018-Feb-25 13:52N 29°34' W 094°25'2 4.0
2018-Feb-25 13:24N 29°36' W 094°24'2 4.4
2018-Feb-25 13:00N 29°36' W 094°22'2 4.8
2018-Feb-25 12:30N 29°38' W 094°19'2 4.5
2018-Feb-25 11:59N 29°39' W 094°17'2 4.6
2018-Feb-25 11:30N 29°40' W 094°15'2 4.4
2018-Feb-25 11:00N 29°41' W 094°13'2 4.0
2018-Feb-25 10:30N 29°41' W 094°10'0 0.9
2018-Feb-25 10:00N 29°41' W 094°10'0 0.0
2018-Feb-25 09:30N 29°41' W 094°10'0 0.0
2018-Feb-25 09:01N 29°41' W 094°10'2 3.7
2018-Feb-25 08:30N 29°42' W 094°08'2 3.7
2018-Feb-25 08:00N 29°44' W 094°06'2 4.3
2018-Feb-25 07:30N 29°45' W 094°04'2 4.3
2018-Feb-25 07:00N 29°46' W 094°02'2 4.4
2018-Feb-25 06:30N 29°48' W 094°01'2 4.2
2018-Feb-25 06:00N 29°49' W 093°59'2 4.4
2018-Feb-25 05:30N 29°51' W 093°57'3 5.5
2018-Feb-25 05:00N 29°53' W 093°55'3 5.4
2018-Feb-25 04:30N 29°55' W 093°53'3 5.6
2018-Feb-25 04:00N 29°58' W 093°52'3 5.5
2018-Feb-25 03:30N 29°59' W 093°49'2 4.9
2018-Feb-25 03:00N 30°00' W 093°46'2 3.7
2018-Feb-25 02:30N 30°01' W 093°45'2 4.3
2018-Feb-25 02:00N 30°03' W 093°43'2 4.2
2018-Feb-25 01:30N 30°04' W 093°41'2 4.1
2018-Feb-25 01:00N 30°04' W 093°39'2 4.1
2018-Feb-25 00:30N 30°04' W 093°36'2 4.4
2018-Feb-25 00:00N 30°04' W 093°34'2 4.4
2018-Feb-24 23:30N 30°04' W 093°31'2 4.3
2018-Feb-24 23:00N 30°04' W 093°29'2 4.4
2018-Feb-24 22:30N 30°04' W 093°26'2 4.0
2018-Feb-24 22:00N 30°04' W 093°24'2 4.7
2018-Feb-24 21:30N 30°04' W 093°21'2 4.7
2018-Feb-24 21:00N 30°05' W 093°19'2 3.2
2018-Feb-24 20:31N 30°05' W 093°18'1 1.5
2018-Feb-24 20:00N 30°05' W 093°17'0 0.9
2018-Feb-24 19:30N 30°05' W 093°16'0 0.0
2018-Feb-24 19:00N 30°05' W 093°17'0 0.1
2018-Feb-24 18:30N 30°05' W 093°16'0 0.0
2018-Feb-24 18:00N 30°05' W 093°16'0 0.0
2018-Feb-24 17:30N 30°05' W 093°16'0 0.1
2018-Feb-24 17:00N 30°04' W 093°16'0 0.0
2018-Feb-24 16:30N 30°04' W 093°16'0 0.4
2018-Feb-24 16:00N 30°04' W 093°16'2 4.0
2018-Feb-24 15:30N 30°02' W 093°16'2 4.8
2018-Feb-24 15:00N 30°01' W 093°14'3 5.1
2018-Feb-24 14:30N 29°59' W 093°12'2 5.0
2018-Feb-24 14:00N 29°57' W 093°10'42 3.6
2018-Feb-24 02:12N 29°51' W 092°22'1 3.9
2018-Feb-24 02:00N 29°51' W 092°21'2 3.7
2018-Feb-24 01:30N 29°50' W 092°19'2 4.2
2018-Feb-24 01:00N 29°49' W 092°17'2 4.5
2018-Feb-24 00:30N 29°48' W 092°15'2 4.5
2018-Feb-24 00:00N 29°47' W 092°12'1 1.4
2018-Feb-23 23:30N 29°47' W 092°12'1 1.5
2018-Feb-23 23:00N 29°47' W 092°11'1 2.3
2018-Feb-23 22:30N 29°47' W 092°10'2 4.2
2018-Feb-23 21:58N 29°47' W 092°07'2 4.0
2018-Feb-23 21:30N 29°48' W 092°05'2 4.0
2018-Feb-23 21:00N 29°49' W 092°03'2 4.4
2018-Feb-23 20:28N 29°50' W 092°00'3 4.5
2018-Feb-23 19:54N 29°50' W 091°58'2 4.5
2018-Feb-23 19:30N 29°51' W 091°56'  
2018-Feb-19 14:36N 29°51' W 091°55'0 3.6
2018-Feb-19 14:28N 29°51' W 091°55'2 3.9
2018-Feb-19 14:00N 29°50' W 091°57'2 4.0
2018-Feb-19 13:30N 29°50' W 091°60'2 3.9
2018-Feb-19 13:00N 29°49' W 092°02'2 4.0
2018-Feb-19 12:30N 29°48' W 092°04'2 4.2
2018-Feb-19 12:00N 29°48' W 092°06'2 4.2
2018-Feb-19 11:30N 29°47' W 092°08'2 3.7
2018-Feb-19 11:00N 29°47' W 092°11'2 3.7
2018-Feb-19 10:30N 29°47' W 092°13'2 3.8
2018-Feb-19 10:00N 29°48' W 092°15'2 4.1
2018-Feb-19 09:30N 29°49' W 092°17'2 3.9
2018-Feb-19 09:00N 29°50' W 092°18'2 4.0
2018-Feb-19 08:25N 29°51' W 092°21'36 3.5
2018-Feb-18 22:17N 29°56' W 093°02'1 3.4
2018-Feb-18 22:00N 29°56' W 093°03'2 3.3
2018-Feb-18 21:28N 29°56' W 093°05'2 3.4
2018-Feb-18 21:00N 29°56' W 093°07'1 2.9
2018-Feb-18 20:31N 29°56' W 093°08'2 3.1
2018-Feb-18 20:00N 29°56' W 093°10'2 3.4
2018-Feb-18 19:28N 29°58' W 093°11'1 3.2
2018-Feb-18 19:00N 29°59' W 093°12'2 3.2
2018-Feb-18 18:30N 30°00' W 093°14'1 2.8
2018-Feb-18 18:01N 30°02' W 093°14'2 3.2
2018-Feb-18 17:29N 30°03' W 093°16'2 3.2
2018-Feb-18 17:00N 30°04' W 093°16'2 3.4
2018-Feb-18 16:30N 30°05' W 093°18'1 1.9
2018-Feb-18 16:01N 30°06' W 093°18'1 1.5
2018-Feb-18 15:31N 30°06' W 093°19'2 3.3
2018-Feb-18 15:01N 30°05' W 093°20'2 3.4
2018-Feb-18 14:30N 30°04' W 093°22'0 0.7
2018-Feb-18 14:01N 30°04' W 093°22'0 0.0
2018-Feb-18 13:30N 30°04' W 093°22'0 0.1
2018-Feb-18 13:01N 30°04' W 093°22'1 1.4
2018-Feb-18 12:30N 30°04' W 093°21'0 0.1
2018-Feb-18 12:00N 30°04' W 093°21'1 1.2
2018-Feb-18 11:30N 30°04' W 093°22'0 0.1
2018-Feb-18 11:01N 30°04' W 093°22'1 2.6
2018-Feb-18 10:31N 30°04' W 093°24'2 4.0
2018-Feb-18 10:00N 30°04' W 093°26'2 4.1
2018-Feb-18 09:31N 30°04' W 093°28'2 4.1
2018-Feb-18 09:01N 30°04' W 093°31'2 4.0
2018-Feb-18 08:30N 30°04' W 093°33'2 4.1
2018-Feb-18 08:00N 30°04' W 093°35'2 4.1
2018-Feb-18 07:30N 30°04' W 093°38'2 4.2
2018-Feb-18 07:00N 30°04' W 093°40'2 4.2
2018-Feb-18 06:30N 30°03' W 093°43'2 3.9
2018-Feb-18 06:00N 30°02' W 093°44'2 4.0
2018-Feb-18 05:30N 30°00' W 093°46'2 4.4
2018-Feb-18 05:00N 29°59' W 093°48'2 4.9
2018-Feb-18 04:30N 29°58' W 093°51'2 4.1
2018-Feb-18 04:00N 29°57' W 093°52'3 5.1
2018-Feb-18 03:31N 29°55' W 093°54'3 5.2
2018-Feb-18 03:01N 29°53' W 093°55'3 5.2
2018-Feb-18 02:30N 29°50' W 093°57'2 3.9
2018-Feb-18 02:01N 29°49' W 093°59'2 3.7
2018-Feb-18 01:31N 29°48' W 094°00'2 3.6
2018-Feb-18 01:00N 29°47' W 094°02'1 2.8
2018-Feb-18 00:30N 29°46' W 094°03'1 2.5
2018-Feb-18 00:01N 29°45' W 094°04'2 3.2
2018-Feb-17 23:31N 29°44' W 094°06'2 3.0
2018-Feb-17 23:01N 29°43' W 094°07'1 2.8
2018-Feb-17 22:31N 29°42' W 094°08'2 3.0
2018-Feb-17 22:00N 29°41' W 094°10'2 3.7
2018-Feb-17 21:30N 29°41' W 094°12'2 3.6
2018-Feb-17 21:01N 29°40' W 094°14'2 3.6
2018-Feb-17 20:31N 29°39' W 094°16'1 2.4
2018-Feb-17 20:00N 29°39' W 094°17'2 3.7
2018-Feb-17 19:29N 29°38' W 094°19'2 3.8
2018-Feb-17 18:58N 29°37' W 094°21'2 3.8
2018-Feb-17 18:30N 29°36' W 094°23'3 3.1
2018-Feb-17 17:25N 29°34' W 094°26'9 1.0
2018-Feb-17 08:39N 29°30' W 094°35'0 0.0
2018-Feb-17 08:20N 29°30' W 094°35'0 0.0
2018-Feb-17 07:53N 29°30' W 094°35'0 0.0
2018-Feb-17 07:19N 29°30' W 094°35'0 0.0
2018-Feb-17 06:47N 29°30' W 094°35'0 0.0
2018-Feb-17 06:07N 29°30' W 094°35'0 0.0
2018-Feb-17 05:51N 29°30' W 094°35'0 0.0
2018-Feb-17 05:23N 29°30' W 094°35'0 0.0
2018-Feb-17 04:53N 29°30' W 094°35'0 0.0
2018-Feb-17 04:30N 29°30' W 094°35'0 0.0
2018-Feb-17 03:57N 29°30' W 094°35'0 0.0
2018-Feb-17 03:29N 29°30' W 094°35'0 0.0
2018-Feb-17 02:58N 29°30' W 094°35'0 0.0
2018-Feb-17 02:30N 29°30' W 094°35'0 0.0
2018-Feb-17 02:00N 29°30' W 094°35'0 0.0
2018-Feb-17 01:30N 29°30' W 094°35'0 0.0
2018-Feb-17 00:59N 29°30' W 094°35'0 0.1
2018-Feb-17 00:28N 29°30' W 094°35'0 0.9
2018-Feb-17 00:01N 29°29' W 094°35'0 0.7
2018-Feb-16 23:25N 29°29' W 094°35'0 0.2
2018-Feb-16 22:53N 29°29' W 094°36'1 3.1
2018-Feb-16 22:29N 29°29' W 094°37'6 1.7
2018-Feb-16 18:41N 29°26' W 094°43'0 2.4
2018-Feb-16 18:30N 29°25' W 094°44'3 4.3
2018-Feb-16 17:54N 29°24' W 094°46'29 4.0
2018-Feb-16 10:43N 29°47' W 095°04'2730.2
2018-Feb-16 09:50N 29°22' W 094°54'0 0.0
2018-Feb-16 09:25N 29°22' W 094°54'0 0.0
2018-Feb-16 08:26N 29°22' W 094°54'0 0.0
2018-Feb-16 08:00N 29°22' W 094°54'0 0.0
2018-Feb-16 07:26N 29°22' W 094°54'0 0.0
2018-Feb-16 07:00N 29°22' W 094°54'0 0.0
2018-Feb-16 06:30N 29°22' W 094°54'0 0.0
2018-Feb-16 06:00N 29°22' W 094°54'0 0.0
2018-Feb-16 05:30N 29°22' W 094°54'0 0.0
2018-Feb-16 04:59N 29°22' W 094°54'1 2.3
2018-Feb-16 04:30N 29°22' W 094°53'3 5.4
2018-Feb-16 04:00N 29°22' W 094°50'2 3.2
2018-Feb-16 03:30N 29°23' W 094°48'3 6.9
2018-Feb-16 03:00N 29°26' W 094°50'4 7.0
2018-Feb-16 02:30N 29°29' W 094°52'3 7.0
2018-Feb-16 02:00N 29°32' W 094°54'4 7.3
2018-Feb-16 01:30N 29°35' W 094°56'4 7.4
2018-Feb-16 00:59N 29°39' W 094°58'3 7.1
2018-Feb-16 00:30N 29°42' W 094°60'4 6.2
2018-Feb-15 23:55N 29°44' W 095°03'3 0.7
2018-Feb-15 19:33N 29°42' W 095°00'6 1.1
2018-Feb-15 14:16N 29°46' W 095°06'0 0.7
2018-Feb-15 14:00N 29°46' W 095°05'  
Track history (hours):
 
Tides and Currents Weather Stations Pressure Air Temp Water Temp Dewpoint Dewpoint Depression Visibility Wind Speed Wind Dir Waves Ship Positions

Holy Cross

Owner: Marquette Transportation Company Gulf-Inland, LLC, Jefferson, LA. More information available from US FCC via Universal Licensing System and Coast Guard Vessel Documentation Center.

Last reported at 2018-Feb-25 13:52 UTC. Time now 2018-Feb-25 14:03 UTC.
Position N 29°34' W 094°25'.

Length 21 m; draft 3 m.

Type: . MMSI: 367389540.

Date/timePositionNaut miles runAvg speedWind from/ knotsBaromVisibWave heightAir tempDewpointWater temp
2018-Feb-25 13:52N 29°34' W 094°25'2 4.0
2018-Feb-25 13:24N 29°36' W 094°24'2 4.4
2018-Feb-25 13:00N 29°36' W 094°22'2 4.8
2018-Feb-25 12:30N 29°38' W 094°19'2 4.5
2018-Feb-25 11:59N 29°39' W 094°17'2 4.6
2018-Feb-25 11:30N 29°40' W 094°15'2 4.4
2018-Feb-25 11:00N 29°41' W 094°13'2 4.0
2018-Feb-25 10:30N 29°41' W 094°10'0 0.9
2018-Feb-25 10:00N 29°41' W 094°10'0 0.0
2018-Feb-25 09:30N 29°41' W 094°10'0 0.0
2018-Feb-25 09:01N 29°41' W 094°10'2 3.7
2018-Feb-25 08:30N 29°42' W 094°08'2 3.7
2018-Feb-25 08:00N 29°44' W 094°06'2 4.3
2018-Feb-25 07:30N 29°45' W 094°04'2 4.3
2018-Feb-25 07:00N 29°46' W 094°02'2 4.4
2018-Feb-25 06:30N 29°48' W 094°01'2 4.2
2018-Feb-25 06:00N 29°49' W 093°59'2 4.4
2018-Feb-25 05:30N 29°51' W 093°57'3 5.5
2018-Feb-25 05:00N 29°53' W 093°55'3 5.4
2018-Feb-25 04:30N 29°55' W 093°53'3 5.6
2018-Feb-25 04:00N 29°58' W 093°52'3 5.5
2018-Feb-25 03:30N 29°59' W 093°49'2 4.9
2018-Feb-25 03:00N 30°00' W 093°46'2 3.7
2018-Feb-25 02:30N 30°01' W 093°45'2 4.3
2018-Feb-25 02:00N 30°03' W 093°43'2 4.2
2018-Feb-25 01:30N 30°04' W 093°41'2 4.1
2018-Feb-25 01:00N 30°04' W 093°39'2 4.1
2018-Feb-25 00:30N 30°04' W 093°36'2 4.4
2018-Feb-25 00:00N 30°04' W 093°34'2 4.4
2018-Feb-24 23:30N 30°04' W 093°31'2 4.3
2018-Feb-24 23:00N 30°04' W 093°29'2 4.4
2018-Feb-24 22:30N 30°04' W 093°26'2 4.0
2018-Feb-24 22:00N 30°04' W 093°24'2 4.7
2018-Feb-24 21:30N 30°04' W 093°21'2 4.7
2018-Feb-24 21:00N 30°05' W 093°19'2 3.2
2018-Feb-24 20:31N 30°05' W 093°18'1 1.5
2018-Feb-24 20:00N 30°05' W 093°17'0 0.9
2018-Feb-24 19:30N 30°05' W 093°16'0 0.0
2018-Feb-24 19:00N 30°05' W 093°17'0 0.1
2018-Feb-24 18:30N 30°05' W 093°16'0 0.0
2018-Feb-24 18:00N 30°05' W 093°16'0 0.0
2018-Feb-24 17:30N 30°05' W 093°16'0 0.1
2018-Feb-24 17:00N 30°04' W 093°16'0 0.0
2018-Feb-24 16:30N 30°04' W 093°16'0 0.4
2018-Feb-24 16:00N 30°04' W 093°16'2 4.0
2018-Feb-24 15:30N 30°02' W 093°16'2 4.8
2018-Feb-24 15:00N 30°01' W 093°14'3 5.1
2018-Feb-24 14:30N 29°59' W 093°12'2 5.0
2018-Feb-24 14:00N 29°57' W 093°10'42 3.6
2018-Feb-24 02:12N 29°51' W 092°22'1 3.9
2018-Feb-24 02:00N 29°51' W 092°21'2 3.7
2018-Feb-24 01:30N 29°50' W 092°19'2 4.2
2018-Feb-24 01:00N 29°49' W 092°17'2 4.5
2018-Feb-24 00:30N 29°48' W 092°15'2 4.5
2018-Feb-24 00:00N 29°47' W 092°12'1 1.4
2018-Feb-23 23:30N 29°47' W 092°12'1 1.5
2018-Feb-23 23:00N 29°47' W 092°11'1 2.3
2018-Feb-23 22:30N 29°47' W 092°10'2 4.2
2018-Feb-23 21:58N 29°47' W 092°07'2 4.0
2018-Feb-23 21:30N 29°48' W 092°05'2 4.0
2018-Feb-23 21:00N 29°49' W 092°03'2 4.4
2018-Feb-23 20:28N 29°50' W 092°00'3 4.5
2018-Feb-23 19:54N 29°50' W 091°58'2 4.5
2018-Feb-23 19:30N 29°51' W 091°56'  
2018-Feb-19 14:36N 29°51' W 091°55'0 3.6
2018-Feb-19 14:28N 29°51' W 091°55'2 3.9
2018-Feb-19 14:00N 29°50' W 091°57'2 4.0
2018-Feb-19 13:30N 29°50' W 091°60'2 3.9
2018-Feb-19 13:00N 29°49' W 092°02'2 4.0
2018-Feb-19 12:30N 29°48' W 092°04'2 4.2
2018-Feb-19 12:00N 29°48' W 092°06'2 4.2
2018-Feb-19 11:30N 29°47' W 092°08'2 3.7
2018-Feb-19 11:00N 29°47' W 092°11'2 3.7
2018-Feb-19 10:30N 29°47' W 092°13'2 3.8
2018-Feb-19 10:00N 29°48' W 092°15'2 4.1
2018-Feb-19 09:30N 29°49' W 092°17'2 3.9
2018-Feb-19 09:00N 29°50' W 092°18'2 4.0
2018-Feb-19 08:25N 29°51' W 092°21'36 3.5
2018-Feb-18 22:17N 29°56' W 093°02'1 3.4
2018-Feb-18 22:00N 29°56' W 093°03'2 3.3
2018-Feb-18 21:28N 29°56' W 093°05'2 3.4
2018-Feb-18 21:00N 29°56' W 093°07'1 2.9
2018-Feb-18 20:31N 29°56' W 093°08'2 3.1
2018-Feb-18 20:00N 29°56' W 093°10'2 3.4
2018-Feb-18 19:28N 29°58' W 093°11'1 3.2
2018-Feb-18 19:00N 29°59' W 093°12'2 3.2
2018-Feb-18 18:30N 30°00' W 093°14'1 2.8
2018-Feb-18 18:01N 30°02' W 093°14'2 3.2
2018-Feb-18 17:29N 30°03' W 093°16'2 3.2
2018-Feb-18 17:00N 30°04' W 093°16'2 3.4
2018-Feb-18 16:30N 30°05' W 093°18'1 1.9
2018-Feb-18 16:01N 30°06' W 093°18'1 1.5
2018-Feb-18 15:31N 30°06' W 093°19'2 3.3
2018-Feb-18 15:01N 30°05' W 093°20'2 3.4
2018-Feb-18 14:30N 30°04' W 093°22'0 0.7
2018-Feb-18 14:01N 30°04' W 093°22'0 0.0
2018-Feb-18 13:30N 30°04' W 093°22'0 0.1
2018-Feb-18 13:01N 30°04' W 093°22'1 1.4
2018-Feb-18 12:30N 30°04' W 093°21'0 0.1
2018-Feb-18 12:00N 30°04' W 093°21'1 1.2
2018-Feb-18 11:30N 30°04' W 093°22'0 0.1
2018-Feb-18 11:01N 30°04' W 093°22'1 2.6
2018-Feb-18 10:31N 30°04' W 093°24'2 4.0
2018-Feb-18 10:00N 30°04' W 093°26'2 4.1
2018-Feb-18 09:31N 30°04' W 093°28'2 4.1
2018-Feb-18 09:01N 30°04' W 093°31'2 4.0
2018-Feb-18 08:30N 30°04' W 093°33'2 4.1
2018-Feb-18 08:00N 30°04' W 093°35'2 4.1
2018-Feb-18 07:30N 30°04' W 093°38'2 4.2
2018-Feb-18 07:00N 30°04' W 093°40'2 4.2
2018-Feb-18 06:30N 30°03' W 093°43'2 3.9
2018-Feb-18 06:00N 30°02' W 093°44'2 4.0
2018-Feb-18 05:30N 30°00' W 093°46'2 4.4
2018-Feb-18 05:00N 29°59' W 093°48'2 4.9
2018-Feb-18 04:30N 29°58' W 093°51'2 4.1
2018-Feb-18 04:00N 29°57' W 093°52'3 5.1
2018-Feb-18 03:31N 29°55' W 093°54'3 5.2
2018-Feb-18 03:01N 29°53' W 093°55'3 5.2
2018-Feb-18 02:30N 29°50' W 093°57'2 3.9
2018-Feb-18 02:01N 29°49' W 093°59'2 3.7
2018-Feb-18 01:31N 29°48' W 094°00'2 3.6
2018-Feb-18 01:00N 29°47' W 094°02'1 2.8
2018-Feb-18 00:30N 29°46' W 094°03'1 2.5
2018-Feb-18 00:01N 29°45' W 094°04'2 3.2
2018-Feb-17 23:31N 29°44' W 094°06'2 3.0
2018-Feb-17 23:01N 29°43' W 094°07'1 2.8
2018-Feb-17 22:31N 29°42' W 094°08'2 3.0
2018-Feb-17 22:00N 29°41' W 094°10'2 3.7
2018-Feb-17 21:30N 29°41' W 094°12'2 3.6
2018-Feb-17 21:01N 29°40' W 094°14'2 3.6
2018-Feb-17 20:31N 29°39' W 094°16'1 2.4
2018-Feb-17 20:00N 29°39' W 094°17'2 3.7
2018-Feb-17 19:29N 29°38' W 094°19'2 3.8
2018-Feb-17 18:58N 29°37' W 094°21'2 3.8
2018-Feb-17 18:30N 29°36' W 094°23'3 3.1
2018-Feb-17 17:25N 29°34' W 094°26'9 1.0
2018-Feb-17 08:39N 29°30' W 094°35'0 0.0
2018-Feb-17 08:20N 29°30' W 094°35'0 0.0
2018-Feb-17 07:53N 29°30' W 094°35'0 0.0
2018-Feb-17 07:19N 29°30' W 094°35'0 0.0
2018-Feb-17 06:47N 29°30' W 094°35'0 0.0
2018-Feb-17 06:07N 29°30' W 094°35'0 0.0
2018-Feb-17 05:51N 29°30' W 094°35'0 0.0
2018-Feb-17 05:23N 29°30' W 094°35'0 0.0
2018-Feb-17 04:53N 29°30' W 094°35'0 0.0
2018-Feb-17 04:30N 29°30' W 094°35'0 0.0
2018-Feb-17 03:57N 29°30' W 094°35'0 0.0
2018-Feb-17 03:29N 29°30' W 094°35'0 0.0
2018-Feb-17 02:58N 29°30' W 094°35'0 0.0
2018-Feb-17 02:30N 29°30' W 094°35'0 0.0
2018-Feb-17 02:00N 29°30' W 094°35'0 0.0
2018-Feb-17 01:30N 29°30' W 094°35'0 0.0
2018-Feb-17 00:59N 29°30' W 094°35'0 0.1
2018-Feb-17 00:28N 29°30' W 094°35'0 0.9
2018-Feb-17 00:01N 29°29' W 094°35'0 0.7
2018-Feb-16 23:25N 29°29' W 094°35'0 0.2
2018-Feb-16 22:53N 29°29' W 094°36'1 3.1
2018-Feb-16 22:29N 29°29' W 094°37'6 1.7
2018-Feb-16 18:41N 29°26' W 094°43'0 2.4
2018-Feb-16 18:30N 29°25' W 094°44'3 4.3
2018-Feb-16 17:54N 29°24' W 094°46'29 4.0
2018-Feb-16 10:43N 29°47' W 095°04'2730.2
2018-Feb-16 09:50N 29°22' W 094°54'0 0.0
2018-Feb-16 09:25N 29°22' W 094°54'0 0.0
2018-Feb-16 08:26N 29°22' W 094°54'0 0.0
2018-Feb-16 08:00N 29°22' W 094°54'0 0.0
2018-Feb-16 07:26N 29°22' W 094°54'0 0.0
2018-Feb-16 07:00N 29°22' W 094°54'0 0.0
2018-Feb-16 06:30N 29°22' W 094°54'0 0.0
2018-Feb-16 06:00N 29°22' W 094°54'0 0.0
2018-Feb-16 05:30N 29°22' W 094°54'0 0.0
2018-Feb-16 04:59N 29°22' W 094°54'1 2.3
2018-Feb-16 04:30N 29°22' W 094°53'3 5.4
2018-Feb-16 04:00N 29°22' W 094°50'2 3.2
2018-Feb-16 03:30N 29°23' W 094°48'3 6.9
2018-Feb-16 03:00N 29°26' W 094°50'4 7.0
2018-Feb-16 02:30N 29°29' W 094°52'3 7.0
2018-Feb-16 02:00N 29°32' W 094°54'4 7.3
2018-Feb-16 01:30N 29°35' W 094°56'4 7.4
2018-Feb-16 00:59N 29°39' W 094°58'3 7.1
2018-Feb-16 00:30N 29°42' W 094°60'4 6.2
2018-Feb-15 23:55N 29°44' W 095°03'3 0.7
2018-Feb-15 19:33N 29°42' W 095°00'6 1.1
2018-Feb-15 14:16N 29°46' W 095°06'0 0.7
2018-Feb-15 14:00N 29°46' W 095°05'  

Dump ship's entire track history